Time;durP1;ratioP1;P1;durP2;ratioP2;P2;SDS_P1;SDS_P2;PMS_P1;PMS_P2;Temp;Humidity;BMP_temperature;BMP_pressure;BME280_temperature;BME280_humidity;BME280_pressure;Samples;Min_cycle;Max_cycle;Signal;HPM_P1;HPM_P2
2022/07/29 00:00:27;;;;;;;9.33;3.77;;;;;;;22.41;56.75;101299.48;1696160;83;25772;-61
2022/07/29 00:02:56;;;;;;;17.80;3.60;;;;;;;22.44;56.89;101305.08;1713169;82;26611;-61
2022/07/29 00:05:24;;;;;;;10.08;3.50;;;;;;;22.44;57.32;101305.95;1731305;82;25831;-61
2022/07/29 00:07:51;;;;;;;10.30;4.08;;;;;;;22.46;56.82;101305.73;1739779;81;27631;-61
2022/07/29 00:10:18;;;;;;;10.50;4.40;;;;;;;22.47;57.13;101303.31;1736221;81;26009;-61
2022/07/29 00:12:45;;;;;;;7.47;3.20;;;;;;;22.47;57.69;101300.04;1734741;82;25831;-61
2022/07/29 00:15:11;;;;;;;22.70;3.60;;;;;;;22.41;57.43;101302.23;1697896;83;25876;-61
2022/07/29 00:17:38;;;;;;;12.00;3.35;;;;;;;22.41;57.37;101303.59;1702510;83;25799;-61
2022/07/29 00:20:07;;;;;;;6.67;3.20;;;;;;;22.45;57.33;101304.91;1699105;84;28186;-61
2022/07/29 00:22:39;;;;;;;11.68;3.35;;;;;;;22.49;57.21;101306.17;1703386;84;26354;-61
2022/07/29 00:25:08;;;;;;;14.43;3.10;;;;;;;22.48;57.16;101311.87;1752471;81;25732;-61
2022/07/29 00:27:36;;;;;;;11.93;3.20;;;;;;;22.50;57.18;101307.87;1737402;82;25729;-61
2022/07/29 00:30:05;;;;;;;5.67;3.05;;;;;;;22.54;57.54;101309.67;1738734;82;25800;-61
2022/07/29 00:32:33;;;;;;;6.92;3.58;;;;;;;22.52;57.31;101306.28;1735041;82;27407;-61
2022/07/29 00:37:46;;;;;;;9.73;3.25;;;;;;;22.46;57.20;101301.08;1732559;82;25715;-61
2022/07/29 00:40:12;;;;;;;12.58;3.20;;;;;;;22.47;57.16;101304.16;1739763;81;25770;-61
2022/07/29 00:42:44;;;;;;;9.63;3.35;;;;;;;22.49;57.46;101300.69;1743916;80;26195;-62
2022/07/29 00:45:13;;;;;;;10.78;2.83;;;;;;;22.45;57.37;101302.67;1769416;80;27477;-60
2022/07/29 00:47:40;;;;;;;11.25;2.80;;;;;;;22.41;57.67;101303.59;1735198;82;25770;-61
2022/07/29 00:50:10;;;;;;;11.50;2.77;;;;;;;22.36;57.82;101309.66;1734774;82;25424;-61
2022/07/29 00:52:39;;;;;;;12.80;2.90;;;;;;;22.34;57.65;101302.69;1736922;82;25756;-61
2022/07/29 00:55:11;;;;;;;7.55;2.90;;;;;;;22.35;57.53;101305.75;1704367;82;25649;-61
2022/07/29 00:57:39;;;;;;;5.15;3.22;;;;;;;22.35;57.50;101303.02;1739059;81;28556;-61
2022/07/29 01:00:11;;;;;;;8.38;3.00;;;;;;;22.35;57.52;101304.38;1702637;82;25897;-62
2022/07/29 01:02:38;;;;;;;8.10;2.90;;;;;;;22.38;57.63;101297.11;1706539;83;25762;-60
2022/07/29 01:05:07;;;;;;;13.10;3.65;;;;;;;22.40;57.73;101294.22;1728969;82;25779;-60
2022/07/29 01:07:37;;;;;;;10.93;3.08;;;;;;;22.37;57.81;101298.16;1735950;82;25633;-60
2022/07/29 01:10:06;;;;;;;7.10;2.92;;;;;;;22.35;57.89;101290.14;1734796;81;27320;-60
2022/07/29 01:12:35;;;;;;;12.23;2.47;;;;;;;22.35;58.10;101296.99;1735695;82;25668;-60
2022/07/29 01:15:06;;;;;;;6.65;2.50;;;;;;;22.35;57.91;101297.53;1704196;84;25729;-61
2022/07/29 01:17:44;;;;;;;8.50;2.55;;;;;;;22.34;58.03;101298.58;1738645;81;25784;-62
2022/07/29 01:20:35;;;;;;;6.15;2.17;;;;;;;22.35;57.97;101303.84;1704286;84;26501;-61
2022/07/29 01:23:25;;;;;;;10.23;3.47;;;;;;;22.38;57.94;101302.59;1737649;82;27445;-62
2022/07/29 01:26:03;;;;;;;10.65;2.72;;;;;;;22.41;58.05;101298.12;1722171;82;25733;-61
2022/07/29 01:28:58;;;;;;;6.80;2.60;;;;;;;22.43;58.17;101297.91;1731221;82;25707;-62
2022/07/29 01:31:53;;;;;;;9.90;2.75;;;;;;;22.43;58.01;101297.40;1733802;81;27595;-61
2022/07/29 01:34:37;;;;;;;7.95;2.40;;;;;;;22.43;57.92;101301.51;1701783;81;26256;-61
2022/07/29 01:37:26;;;;;;;11.12;2.50;;;;;;;22.44;58.07;101297.72;1737399;82;27482;-62
2022/07/29 01:39:57;;;;;;;10.18;3.15;;;;;;;22.47;58.24;101301.95;1738370;82;25802;-61
2022/07/29 01:42:41;;;;;;;9.70;2.62;;;;;;;22.49;58.13;101303.97;1735346;82;25525;-62
2022/07/29 01:45:28;;;;;;;5.45;2.33;;;;;;;22.48;58.43;101307.22;1728043;81;25507;-61
2022/07/29 01:48:21;;;;;;;3.90;2.50;;;;;;;22.46;58.57;101302.99;1721809;82;25780;-62
2022/07/29 01:51:14;;;;;;;5.28;2.90;;;;;;;22.47;58.51;101301.41;1737867;82;27559;-62
2022/07/29 01:54:02;;;;;;;7.10;2.77;;;;;;;22.51;58.57;101301.84;1726183;82;25732;-61
2022/07/29 01:56:33;;;;;;;12.40;2.58;;;;;;;22.54;58.49;101303.36;1734514;82;25709;-61
2022/07/29 01:59:03;;;;;;;13.28;3.17;;;;;;;22.57;58.41;101305.17;1734734;81;25780;-61
2022/07/29 02:01:32;;;;;;;11.18;2.60;;;;;;;22.58;57.41;101304.63;1739345;81;26635;-60
2022/07/29 02:04:03;;;;;;;10.30;2.50;;;;;;;22.60;57.41;101307.48;1742838;81;27549;-61
2022/07/29 02:06:32;;;;;;;6.08;2.65;;;;;;;22.66;57.39;101304.45;1734668;81;25617;-61
2022/07/29 02:09:00;;;;;;;8.33;2.85;;;;;;;22.70;57.26;101304.39;1735669;81;25777;-61
2022/07/29 02:11:28;;;;;;;9.15;3.20;;;;;;;22.72;57.10;101307.78;1735716;82;25740;-61
2022/07/29 02:13:57;;;;;;;8.38;2.60;;;;;;;22.75;56.51;101306.52;1734481;82;25780;-61
2022/07/29 02:16:28;;;;;;;15.08;2.95;;;;;;;22.75;55.93;101318.31;1738133;81;28191;-61
2022/07/29 02:18:58;;;;;;;6.75;2.92;;;;;;;22.76;55.47;101317.27;1737008;81;25839;-61
2022/07/29 02:21:27;;;;;;;8.83;2.58;;;;;;;22.74;54.81;101315.25;1703331;82;25722;-61
2022/07/29 02:23:57;;;;;;;10.30;2.70;;;;;;;22.74;54.72;101315.25;1704252;84;26419;-61
2022/07/29 02:26:26;;;;;;;9.60;2.62;;;;;;;22.68;54.18;101322.93;1736388;82;25835;-61
2022/07/29 02:28:57;;;;;;;10.45;2.60;;;;;;;22.66;53.97;101329.14;1737201;81;27461;-61
2022/07/29 02:31:29;;;;;;;5.25;2.22;;;;;;;22.62;53.53;101324.59;1703400;84;25831;-61
2022/07/29 02:33:57;;;;;;;5.97;2.60;;;;;;;22.65;53.25;101330.19;1706840;83;25706;-61
2022/07/29 02:36:26;;;;;;;7.95;2.25;;;;;;;22.66;53.02;101327.27;1733099;82;25857;-61
2022/07/29 02:38:57;;;;;;;10.93;2.40;;;;;;;22.66;53.08;101331.38;1734776;81;25775;-61
2022/07/29 02:41:31;;;;;;;6.53;2.70;;;;;;;22.68;52.61;101331.16;1737362;82;28530;-61
2022/07/29 02:44:04;;;;;;;8.60;2.20;;;;;;;22.65;52.56;101333.78;1733729;81;25769;-61
2022/07/29 02:46:37;;;;;;;10.38;2.22;;;;;;;22.62;52.62;101336.09;1736358;82;25817;-61
2022/07/29 02:49:21;;;;;;;6.95;2.27;;;;;;;22.59;52.74;101332.37;1747080;81;26291;-62
2022/07/29 02:51:58;;;;;;;7.22;2.60;;;;;;;22.57;53.20;101335.84;1699034;84;25828;-61
2022/07/29 02:54:51;;;;;;;4.00;2.40;;;;;;;22.46;53.99;101337.26;1702995;82;27514;-61
2022/07/29 02:57:35;;;;;;;11.15;2.98;;;;;;;22.42;55.29;101335.45;1703759;83;25757;-61
2022/07/29 03:00:07;;;;;;;10.43;3.17;;;;;;;22.35;57.64;101343.59;1737465;81;25473;-61
2022/07/29 03:02:38;;;;;;;12.18;3.75;;;;;;;22.20;59.33;101346.43;1713633;83;25784;-61
2022/07/29 03:05:11;;;;;;;6.35;2.95;;;;;;;22.14;59.67;101348.61;1733174;82;25797;-61
2022/07/29 03:07:41;;;;;;;13.55;3.98;;;;;;;22.08;60.75;101345.81;1738068;82;27440;-61
2022/07/29 03:10:09;;;;;;;9.45;3.58;;;;;;;21.94;61.27;101348.45;1725699;82;25865;-61
2022/07/29 03:12:36;;;;;;;8.18;3.30;;;;;;;21.91;62.42;101355.69;1738062;82;25994;-61
2022/07/29 03:15:06;;;;;;;15.80;4.47;;;;;;;21.83;64.91;101359.40;1734432;81;25767;-60
2022/07/29 03:17:33;;;;;;;13.08;4.10;;;;;;;21.78;64.41;101360.52;1737701;82;25897;-61
2022/07/29 03:20:01;;;;;;;8.58;4.10;;;;;;;21.78;65.38;101355.59;1737771;81;27480;-61
2022/07/29 03:22:29;;;;;;;9.63;4.17;;;;;;;21.77;65.17;101354.72;1737645;82;25745;-61
2022/07/29 03:24:56;;;;;;;11.55;3.42;;;;;;;21.75;66.38;101355.44;1734745;81;25684;-61
2022/07/29 03:27:23;;;;;;;9.45;3.70;;;;;;;21.73;66.24;101359.75;1734662;82;25734;-61
2022/07/29 03:29:50;;;;;;;8.90;4.17;;;;;;;21.75;66.62;101357.34;1738069;82;25937;-61
2022/07/29 03:32:17;;;;;;;13.78;4.03;;;;;;;21.75;67.81;101354.06;1735931;82;27479;-61
2022/07/29 03:34:45;;;;;;;11.88;3.83;;;;;;;21.68;69.12;101354.52;1704114;84;25788;-61
2022/07/29 03:37:12;;;;;;;13.75;3.58;;;;;;;21.64;69.98;101356.81;1736421;82;25707;-61
2022/07/29 03:39:41;;;;;;;9.48;3.60;;;;;;;21.58;71.14;101350.22;1705188;83;26323;-60
2022/07/29 03:42:12;;;;;;;13.65;3.58;;;;;;;21.49;72.56;101349.16;1708363;82;25764;-61
2022/07/29 03:44:42;;;;;;;11.45;3.15;;;;;;;21.39;72.00;101355.80;1698014;83;28242;-61
2022/07/29 03:47:11;;;;;;;19.02;9.80;;;;;;;21.38;71.45;101361.48;1733647;82;26097;-61
2022/07/29 03:49:42;;;;;;;4.85;3.00;;;;;;;21.34;71.04;101357.41;1701207;84;25741;-60
2022/07/29 03:52:10;;;;;;;6.85;3.30;;;;;;;21.32;71.38;101366.33;1738608;81;25764;-62
2022/07/29 03:54:39;;;;;;;10.75;3.02;;;;;;;21.34;71.56;101364.26;1703640;84;25737;-61
2022/07/29 03:57:07;;;;;;;7.85;2.98;;;;;;;21.38;72.33;101369.69;1703613;84;27501;-61
2022/07/29 03:59:35;;;;;;;13.40;3.45;;;;;;;21.39;72.28;101364.01;1739173;81;25798;-62
2022/07/29 04:02:08;;;;;;;14.40;3.72;;;;;;;21.43;72.59;101363.93;1700413;84;25757;-61
2022/07/29 04:04:35;;;;;;;11.90;4.45;;;;;;;21.46;72.05;101375.54;1703810;84;25740;-61
2022/07/29 04:07:04;;;;;;;11.55;3.25;;;;;;;21.49;72.20;101373.26;1735824;82;25446;-62
2022/07/29 04:09:31;;;;;;;10.20;3.33;;;;;;;21.48;71.64;101375.66;1736727;82;28156;-62
2022/07/29 04:11:59;;;;;;;12.60;4.75;;;;;;;21.44;71.62;101373.00;1735832;82;25791;-61
2022/07/29 04:14:26;;;;;;;10.95;3.50;;;;;;;21.46;72.42;101376.41;1742778;81;25720;-63
2022/07/29 04:16:55;;;;;;;15.90;3.87;;;;;;;21.54;72.23;101370.80;1748069;81;25670;-61
2022/07/29 04:19:22;;;;;;;11.40;3.58;;;;;;;21.61;72.49;101379.63;1734085;80;25743;-60
2022/07/29 04:21:49;;;;;;;12.30;3.92;;;;;;;21.68;72.65;101377.80;1739899;81;28387;-62
2022/07/29 04:24:17;;;;;;;13.75;5.87;;;;;;;21.73;72.71;101376.71;1734454;82;25751;-63
2022/07/29 04:26:45;;;;;;;6.85;4.08;;;;;;;21.74;72.40;101377.01;1736780;82;25664;-62
2022/07/29 04:29:13;;;;;;;17.10;3.98;;;;;;;21.79;72.51;101377.28;1734841;81;25665;-62
2022/07/29 04:31:46;;;;;;;12.68;7.35;;;;;;;21.85;72.43;101370.18;1740568;81;26347;-61
2022/07/29 04:34:15;;;;;;;9.58;4.33;;;;;;;21.89;72.58;101372.83;1734219;82;27245;-63
2022/07/29 04:36:42;;;;;;;6.60;4.30;;;;;;;21.98;72.94;101377.67;1733936;82;25704;-63
2022/07/29 04:39:09;;;;;;;13.43;4.65;;;;;;;22.01;72.79;101382.73;1734845;82;25744;-62
2022/07/29 04:41:37;;;;;;;8.83;4.10;;;;;;;22.09;73.87;101386.73;1737512;82;25811;-62
2022/07/29 04:44:05;;;;;;;7.95;4.60;;;;;;;22.12;73.38;101384.94;1741129;81;26105;-62
2022/07/29 04:46:35;;;;;;;7.80;4.25;;;;;;;22.20;73.20;101389.44;1747948;81;27521;-63
2022/07/29 04:49:03;;;;;;;8.15;4.80;;;;;;;22.26;73.43;101387.27;1699995;82;25804;-62
2022/07/29 04:51:30;;;;;;;9.80;5.05;;;;;;;22.28;73.44;101380.20;1734051;81;25842;-62
2022/07/29 04:53:58;;;;;;;9.68;4.35;;;;;;;22.33;73.70;101381.30;1735905;82;25708;-62
2022/07/29 04:56:25;;;;;;;7.37;4.58;;;;;;;22.39;73.55;101382.41;1703786;84;25915;-62
2022/07/29 04:58:52;;;;;;;9.40;4.80;;;;;;;22.42;73.18;101389.41;1739880;81;27316;-63
2022/07/29 05:01:20;;;;;;;12.15;4.78;;;;;;;22.46;73.12;101386.06;1755260;81;25747;-61
2022/07/29 05:03:46;;;;;;;10.95;4.75;;;;;;;22.51;73.08;101384.95;1752557;81;25708;-61
2022/07/29 05:06:13;;;;;;;7.05;4.47;;;;;;;22.58;73.22;101386.89;1752796;81;25652;-62
2022/07/29 05:08:40;;;;;;;8.80;4.35;;;;;;;22.65;72.78;101387.27;1750901;81;25835;-62
2022/07/29 05:11:07;;;;;;;9.23;4.65;;;;;;;22.71;72.74;101393.84;1712999;83;27412;-62
2022/07/29 05:13:34;;;;;;;6.53;4.00;;;;;;;22.77;73.73;101388.91;1712965;82;25728;-61
2022/07/29 05:16:02;;;;;;;6.65;4.03;;;;;;;22.78;73.70;101396.09;1717470;82;25876;-61
2022/07/29 05:18:29;;;;;;;13.08;4.35;;;;;;;22.77;73.56;101395.77;1697058;83;25849;-61
2022/07/29 05:20:56;;;;;;;11.97;4.58;;;;;;;22.80;73.11;101400.86;1699560;83;25813;-61
2022/07/29 05:23:23;;;;;;;8.78;4.92;;;;;;;22.85;72.97;101407.61;1698889;83;29583;-61
2022/07/29 05:25:51;;;;;;;9.90;4.92;;;;;;;22.91;73.28;101402.67;1702155;83;25839;-61
2022/07/29 05:28:17;;;;;;;10.05;5.05;;;;;;;22.88;72.89;101403.11;1696838;84;25820;-61
2022/07/29 05:30:45;;;;;;;10.63;4.95;;;;;;;22.88;73.12;101403.11;1696372;84;25804;-61
2022/07/29 05:33:11;;;;;;;6.62;4.60;;;;;;;22.86;72.78;101392.85;1696377;84;25950;-62
2022/07/29 05:35:38;;;;;;;11.15;5.47;;;;;;;22.92;72.63;101396.14;1700497;83;27549;-61
2022/07/29 05:38:05;;;;;;;7.20;4.45;;;;;;;22.93;72.67;101400.08;1706784;83;25803;-62
2022/07/29 05:40:32;;;;;;;9.48;4.25;;;;;;;22.96;72.65;101398.81;1699518;83;25666;-61
2022/07/29 05:42:59;;;;;;;6.03;4.22;;;;;;;23.02;73.07;101403.48;1694769;84;26293;-62
2022/07/29 05:45:27;;;;;;;8.50;4.65;;;;;;;23.06;72.56;101402.03;1695261;84;25728;-59
2022/07/29 05:47:54;;;;;;;11.30;3.77;;;;;;;23.10;72.49;101403.30;1704625;83;27493;-62
2022/07/29 05:50:21;;;;;;;5.10;3.52;;;;;;;23.16;72.30;101407.13;1706978;83;25854;-62
2022/07/29 05:52:47;;;;;;;7.70;4.05;;;;;;;23.14;71.68;101408.72;1698558;84;25858;-62
2022/07/29 05:55:14;;;;;;;8.38;3.65;;;;;;;23.10;71.30;101410.16;1696345;84;25759;-62
2022/07/29 05:57:43;;;;;;;6.85;3.67;;;;;;;23.08;70.95;101407.31;1693560;84;25764;-62
2022/07/29 06:00:11;;;;;;;7.72;3.42;;;;;;;23.05;71.05;101414.06;1692239;83;28448;-62
2022/07/29 06:02:40;;;;;;;10.40;3.92;;;;;;;22.97;70.48;101414.23;1678518;84;25781;-62
2022/07/29 06:05:08;;;;;;;5.28;3.20;;;;;;;22.92;70.50;101418.09;1689497;84;25707;-61
2022/07/29 06:07:34;;;;;;;6.92;3.30;;;;;;;22.90;70.24;101419.67;1691302;84;25848;-62
2022/07/29 06:10:01;;;;;;;9.00;3.17;;;;;;;22.88;70.21;101420.94;1690821;84;26509;-62
2022/07/29 06:12:28;;;;;;;7.33;3.05;;;;;;;22.77;69.19;101434.70;1690630;83;27473;-62
2022/07/29 06:14:55;;;;;;;5.40;2.83;;;;;;;22.70;68.82;101433.78;1708766;83;25634;-61
2022/07/29 06:17:22;;;;;;;10.75;3.47;;;;;;;22.64;68.67;101436.80;1698391;83;25779;-62
2022/07/29 06:19:48;;;;;;;5.28;3.12;;;;;;;22.58;68.29;101438.48;1690259;84;25799;-62
2022/07/29 06:22:17;;;;;;;6.58;2.90;;;;;;;22.52;67.77;101433.77;1690560;84;25748;-62
2022/07/29 06:24:44;;;;;;;5.53;2.70;;;;;;;22.45;67.77;101436.48;1691723;83;27478;-61
2022/07/29 06:27:11;;;;;;;5.95;2.90;;;;;;;22.41;67.44;101434.34;1691480;84;25919;-62
2022/07/29 06:29:39;;;;;;;5.78;2.80;;;;;;;22.32;67.32;101439.07;1690164;83;25847;-62
2022/07/29 06:32:07;;;;;;;5.42;2.47;;;;;;;22.24;66.91;101431.00;1691950;83;25693;-62
2022/07/29 06:34:34;;;;;;;6.75;2.02;;;;;;;22.21;67.02;101434.98;1687670;84;26116;-62
2022/07/29 06:37:08;;;;;;;4.97;2.33;;;;;;;22.20;66.86;101436.86;1745557;82;27435;-62
2022/07/29 06:39:37;;;;;;;7.03;2.58;;;;;;;22.22;66.77;101442.16;1746179;82;25716;-62
2022/07/29 06:42:07;;;;;;;4.97;2.90;;;;;;;22.27;66.55;101442.94;1746609;80;25798;-63
2022/07/29 06:44:36;;;;;;;11.70;2.80;;;;;;;22.29;66.26;101438.09;1747021;80;25791;-62
2022/07/29 06:47:03;;;;;;;14.13;2.12;;;;;;;22.32;65.96;101443.19;1751401;81;25764;-62
2022/07/29 06:49:30;;;;;;;5.00;2.22;;;;;;;22.36;65.94;101444.50;1746058;82;29577;-62
2022/07/29 06:51:57;;;;;;;4.60;1.80;;;;;;;22.41;65.32;101450.78;1745984;82;25964;-62
2022/07/29 06:54:24;;;;;;;8.50;2.47;;;;;;;22.43;64.96;101451.41;1746076;82;25754;-62
2022/07/29 06:56:50;;;;;;;9.58;2.10;;;;;;;22.45;64.78;101452.06;1745980;82;25715;-62
2022/07/29 06:59:17;;;;;;;7.55;2.30;;;;;;;22.47;64.80;101449.98;1749275;81;25562;-61
2022/07/29 07:01:45;;;;;;;11.70;2.10;;;;;;;22.49;64.08;101451.47;1744638;80;27532;-62
2022/07/29 07:04:13;;;;;;;5.70;1.90;;;;;;;22.51;63.96;101454.00;1735332;81;25455;-61
2022/07/29 07:06:39;;;;;;;10.53;2.33;;;;;;;22.54;63.69;101450.04;1752021;80;25468;-62
2022/07/29 07:12:46;;;;;;;9.35;1.98;;;;;;;22.53;63.47;101451.08;1754028;81;25933;-62
2022/07/29 07:15:14;;;;;;;5.58;2.08;;;;;;;22.56;62.97;101452.03;1747013;81;27536;-62
2022/07/29 07:17:41;;;;;;;11.75;2.67;;;;;;;22.58;62.68;101452.69;1753760;81;27223;-62
2022/07/29 07:20:10;;;;;;;3.05;2.25;;;;;;;22.60;62.81;101456.92;1754096;81;25842;-60
2022/07/29 07:22:36;;;;;;;7.12;2.17;;;;;;;22.69;62.70;101456.77;1718293;83;26335;-61
2022/07/29 07:25:05;;;;;;;4.15;1.80;;;;;;;22.76;62.69;101468.12;1718022;83;25732;-62
2022/07/29 07:27:32;;;;;;;7.90;2.10;;;;;;;22.85;62.44;101458.36;1717924;82;27471;-61
2022/07/29 07:29:59;;;;;;;5.62;2.02;;;;;;;22.92;62.14;101467.47;1718160;82;25748;-62
2022/07/29 07:32:26;;;;;;;7.62;2.37;;;;;;;22.98;61.64;101465.31;1718213;83;25843;-62
2022/07/29 07:34:53;;;;;;;7.00;2.00;;;;;;;23.03;61.59;101470.20;1713951;82;25737;-61
2022/07/29 07:37:20;;;;;;;12.82;4.85;;;;;;;23.11;61.51;101471.41;1717849;82;25707;-62
2022/07/29 07:39:47;;;;;;;14.58;6.30;;;;;;;23.13;61.27;101468.77;1717898;83;27476;-62
2022/07/29 07:42:13;;;;;;;15.10;6.15;;;;;;;23.14;60.97;101473.21;1717979;83;25991;-61
2022/07/29 07:44:40;;;;;;;10.30;4.83;;;;;;;23.17;61.18;101476.06;1718563;82;25708;-62
2022/07/29 07:47:08;;;;;;;10.05;3.42;;;;;;;23.18;60.82;101479.17;1718052;82;25724;-62
2022/07/29 07:49:34;;;;;;;10.85;2.83;;;;;;;23.18;59.80;101481.91;1718094;83;25704;-62
2022/07/29 07:52:02;;;;;;;6.97;2.27;;;;;;;23.18;60.00;101480.55;1718179;83;27538;-62
2022/07/29 07:54:28;;;;;;;12.45;2.95;;;;;;;23.23;59.73;101481.30;1718029;83;26372;-62
2022/07/29 07:56:55;;;;;;;11.18;2.35;;;;;;;23.28;59.85;101478.78;1717950;83;25801;-61
2022/07/29 07:59:22;;;;;;;6.08;2.20;;;;;;;23.32;59.30;101482.83;1717580;82;25744;-61
2022/07/29 08:01:50;;;;;;;5.72;1.98;;;;;;;23.32;58.52;101477.84;1755037;81;25758;-62
2022/07/29 08:04:17;;;;;;;5.28;2.25;;;;;;;23.33;58.31;101489.16;1748748;81;27527;-61
2022/07/29 08:06:43;;;;;;;9.33;4.10;;;;;;;23.34;58.60;101488.97;1748666;81;25912;-62
2022/07/29 08:09:10;;;;;;;8.13;2.30;;;;;;;23.35;58.42;101492.55;1748500;82;25680;-62
2022/07/29 08:11:37;;;;;;;9.45;2.02;;;;;;;23.37;58.17;101491.83;1749764;81;26334;-61
2022/07/29 08:14:04;;;;;;;7.95;1.82;;;;;;;23.40;57.87;101501.87;1766827;80;25750;-61
2022/07/29 08:16:31;;;;;;;6.30;1.95;;;;;;;23.41;57.27;101500.83;1766744;80;27457;-61
2022/07/29 08:18:58;;;;;;;23.55;12.13;;;;;;;23.39;57.10;101507.03;1766681;80;25802;-62
2022/07/29 08:21:25;;;;;;;25.25;9.08;;;;;;;23.35;57.21;101504.39;1767015;81;25754;-62
2022/07/29 08:24:42;;;;;;;9.38;2.45;;;;;;;23.41;57.40;101508.20;1766716;81;26039;-62
2022/07/29 08:26:22;;;;;;;14.03;3.27;;;;;;;23.44;56.16;101512.75;1761869;81;25761;-62
2022/07/29 08:28:50;;;;;;;5.17;2.42;;;;;;;23.48;56.58;101515.10;1730555;80;27473;-62
2022/07/29 08:31:18;;;;;;;5.00;1.87;;;;;;;23.52;55.71;101518.61;1712625;83;25879;-62
2022/07/29 08:33:45;;;;;;;10.10;2.45;;;;;;;23.56;54.38;101516.30;1712424;83;25838;-62
2022/07/29 08:36:13;;;;;;;8.10;2.35;;;;;;;23.55;54.64;101515.47;1712704;83;26399;-61
2022/07/29 08:38:40;;;;;;;20.43;3.17;;;;;;;23.57;55.01;101522.98;1712404;83;25762;-62
2022/07/29 08:41:07;;;;;;;14.43;2.35;;;;;;;23.64;54.75;101527.10;1721214;81;27478;-62
2022/07/29 08:43:37;;;;;;;9.23;2.00;;;;;;;23.63;54.66;101524.03;1748083;82;25827;-62
2022/07/29 08:46:03;;;;;;;7.33;2.00;;;;;;;23.66;55.42;101525.55;1748558;81;25751;-61
2022/07/29 08:48:31;;;;;;;5.17;2.70;;;;;;;23.70;55.44;101524.06;1748698;82;26431;-61
2022/07/29 08:50:58;;;;;;;11.25;2.60;;;;;;;23.75;55.57;101526.52;1748586;80;25992;-62
2022/07/29 08:53:27;;;;;;;4.28;2.90;;;;;;;23.78;55.86;101528.55;1755206;80;27591;-61
2022/07/29 08:55:55;;;;;;;6.20;1.95;;;;;;;23.81;56.36;101534.47;1763940;80;25797;-62
2022/07/29 08:58:23;;;;;;;5.45;3.58;;;;;;;23.88;56.73;101533.12;1748941;82;25731;-62
2022/07/29 09:00:53;;;;;;;4.83;2.55;;;;;;;23.95;56.75;101534.02;1707949;83;26277;-62
2022/07/29 09:03:25;;;;;;;8.60;2.60;;;;;;;24.06;57.08;101525.17;1745101;81;25774;-62
2022/07/29 09:05:53;;;;;;;10.45;2.30;;;;;;;24.20;57.30;101527.94;1705165;83;27481;-62
2022/07/29 09:08:21;;;;;;;14.15;2.75;;;;;;;24.31;56.71;101527.33;1740715;82;25759;-62
2022/07/29 09:10:49;;;;;;;5.78;2.15;;;;;;;24.41;56.71;101529.65;1704950;84;25492;-62
2022/07/29 09:13:15;;;;;;;4.92;2.10;;;;;;;24.52;56.92;101530.92;1740753;82;25723;-61
2022/07/29 09:15:42;;;;;;;4.05;2.00;;;;;;;24.62;56.74;101536.85;1705013;83;25753;-61
2022/07/29 09:18:09;;;;;;;11.22;1.98;;;;;;;24.71;55.95;101528.41;1755249;81;28432;-61
2022/07/29 09:23:23;;;;;;;4.00;1.70;;;;;;;24.92;55.10;101532.33;1761244;81;25791;-62
2022/07/29 09:25:50;;;;;;;8.33;1.85;;;;;;;24.93;52.90;101536.77;1761050;81;25614;-61
2022/07/29 09:28:18;;;;;;;8.10;2.30;;;;;;;24.88;52.56;101532.42;1766388;80;25759;-61
2022/07/29 09:30:58;;;;;;;6.62;1.98;;;;;;;24.89;52.45;101535.49;1776641;80;28405;-62
2022/07/29 09:33:35;;;;;;;9.55;2.08;;;;;;;24.96;53.01;101535.49;1743458;80;25728;-62
2022/07/29 09:36:08;;;;;;;5.25;2.08;;;;;;;25.04;53.02;101546.82;1705025;84;26390;-61
2022/07/29 09:38:40;;;;;;;8.53;2.30;;;;;;;25.08;52.54;101539.81;1741290;81;26104;-62
2022/07/29 09:41:06;;;;;;;10.38;3.10;;;;;;;25.08;52.38;101539.81;1739340;81;25720;-62
2022/07/29 09:43:34;;;;;;;8.43;3.10;;;;;;;25.07;52.26;101533.98;1740936;81;27643;-61
2022/07/29 09:46:11;;;;;;;7.17;2.75;;;;;;;25.09;51.07;101540.99;1701771;82;25745;-61
2022/07/29 09:48:38;;;;;;;4.83;3.27;;;;;;;25.03;50.93;101536.87;1739261;82;25791;-62
2022/07/29 09:51:06;;;;;;;10.85;2.33;;;;;;;24.93;51.45;101529.03;1740483;82;25693;-61
2022/07/29 09:53:37;;;;;;;3.75;2.37;;;;;;;24.94;51.48;101534.34;1740824;82;25772;-62
2022/07/29 09:56:05;;;;;;;4.97;3.08;;;;;;;24.92;50.87;101532.33;1740666;82;27614;-61
2022/07/29 09:58:33;;;;;;;11.80;2.58;;;;;;;24.85;51.36;101529.58;1736621;82;26462;-61
2022/07/29 10:01:00;;;;;;;6.87;2.90;;;;;;;24.82;51.28;101529.16;1747857;81;25754;-62
2022/07/29 10:03:28;;;;;;;8.40;2.75;;;;;;;24.78;51.60;101527.91;1753843;81;25708;-61
2022/07/29 10:06:10;;;;;;;7.65;2.92;;;;;;;24.70;51.83;101531.70;1754204;81;26017;-62
2022/07/29 10:08:38;;;;;;;9.10;2.72;;;;;;;24.68;52.25;101530.55;1751547;81;27450;-62
2022/07/29 10:11:19;;;;;;;16.95;2.75;;;;;;;24.63;52.35;101529.46;1717881;83;26318;-62
2022/07/29 10:13:48;;;;;;;4.40;2.17;;;;;;;24.59;52.40;101520.79;1717040;82;25732;-62
2022/07/29 10:16:17;;;;;;;8.80;2.85;;;;;;;24.52;52.36;101517.16;1718079;83;25837;-61
2022/07/29 10:18:46;;;;;;;5.90;2.22;;;;;;;24.49;52.63;101512.11;1718091;83;25720;-62
2022/07/29 10:21:14;;;;;;;6.22;2.37;;;;;;;24.44;53.00;101518.75;1683905;85;27491;-62
2022/07/29 10:23:42;;;;;;;3.30;1.77;;;;;;;24.38;53.57;101513.05;1696827;84;25793;-62
2022/07/29 10:26:11;;;;;;;11.45;1.87;;;;;;;24.37;53.28;101520.15;1718180;83;25760;-61
2022/07/29 10:28:38;;;;;;;7.92;2.20;;;;;;;24.32;53.21;101513.03;1697225;84;26127;-61
2022/07/29 10:31:08;;;;;;;8.50;2.30;;;;;;;24.31;53.91;101515.47;1692677;84;25788;-61
2022/07/29 10:33:48;;;;;;;7.03;2.20;;;;;;;24.31;54.28;101513.58;1718238;83;27288;-61
2022/07/29 10:36:39;;;;;;;4.45;2.08;;;;;;;24.26;54.89;101512.52;1692037;84;25777;-61
2022/07/29 10:39:36;;;;;;;7.15;2.27;;;;;;;24.23;55.78;101516.53;1696178;84;25748;-61
2022/07/29 10:42:23;;;;;;;7.40;2.52;;;;;;;24.16;56.42;101512.94;1718131;83;26301;-61
2022/07/29 10:44:53;;;;;;;8.10;2.80;;;;;;;24.12;56.52;101519.89;1700127;84;25688;-61
2022/07/29 10:47:25;;;;;;;11.90;3.00;;;;;;;24.09;57.36;101520.30;1718235;83;28188;-61
2022/07/29 10:50:07;;;;;;;9.07;2.60;;;;;;;24.06;58.49;101522.43;1731274;82;26093;-61
2022/07/29 10:52:56;;;;;;;8.73;2.60;;;;;;;24.06;59.39;101522.94;1725329;82;25887;-61
2022/07/29 10:55:39;;;;;;;13.03;3.62;;;;;;;24.06;59.91;101510.57;1718343;83;25808;-61
2022/07/29 10:58:19;;;;;;;18.15;6.60;;;;;;;24.14;59.68;101519.16;1717823;83;25819;-61
2022/07/29 11:00:52;;;;;;;18.42;7.33;;;;;;;24.18;60.15;101514.92;1719403;82;27485;-61
2022/07/29 11:03:49;;;;;;;11.68;5.75;;;;;;;24.26;60.16;101513.89;1717937;83;26501;-60
2022/07/29 11:06:17;;;;;;;12.25;5.47;;;;;;;24.34;60.38;101515.05;1731064;82;25760;-60
2022/07/29 11:08:44;;;;;;;8.83;4.30;;;;;;;24.44;61.11;101511.87;1730616;82;25508;-61
2022/07/29 11:11:32;;;;;;;9.98;3.52;;;;;;;24.53;60.87;101516.98;1730891;82;25797;-61
2022/07/29 11:14:00;;;;;;;37.55;3.92;;;;;;;24.60;60.93;101516.98;1730544;81;27490;-61
2022/07/29 11:16:33;;;;;;;21.02;3.30;;;;;;;24.68;60.59;101505.80;1719228;82;25788;-61
2022/07/29 11:19:15;;;;;;;16.20;3.93;;;;;;;24.73;60.47;101508.42;1711527;82;25484;-61
2022/07/29 11:21:49;;;;;;;12.87;3.67;;;;;;;24.74;60.92;101511.49;1710231;83;25781;-60
2022/07/29 11:24:18;;;;;;;10.70;3.50;;;;;;;24.73;60.74;101511.17;1691375;83;26556;-62
2022/07/29 11:26:46;;;;;;;11.12;3.90;;;;;;;24.74;60.49;101512.87;1718047;83;27546;-61
2022/07/29 11:29:22;;;;;;;23.90;4.05;;;;;;;24.74;60.44;101511.49;1691208;82;25741;-62
2022/07/29 11:31:55;;;;;;;8.28;3.40;;;;;;;24.70;60.51;101515.20;1716413;83;25772;-61
2022/07/29 11:34:32;;;;;;;9.88;4.72;;;;;;;24.72;60.48;101513.61;1717966;83;26192;-61
2022/07/29 11:37:13;;;;;;;11.08;5.22;;;;;;;24.74;60.37;101508.74;1714073;82;25705;-61
2022/07/29 11:40:07;;;;;;;19.87;4.72;;;;;;;24.77;60.58;101516.58;1684273;85;27507;-62
2022/07/29 11:42:40;;;;;;;;;;;;;;;24.81;60.83;101509.58;1695296;84;25830;-61
2022/07/29 11:45:20;;;;;;;18.10;6.80;;;;;;;24.80;60.16;101512.88;1696726;84;25853;-61